Etusivu
METAR-TAF:

METAR-TAF

Lentoasemat :

Clinton Municipal Airport

Clinton, Iowa, Yhdysvallat

Leveyspiiri: 41-50N, Pituuspiiri: 090-20W, korkeus merenpinnasta: 216 m

Tämänhetkinen sää

Tämä raportti tehtiin 16 minuuttia sitten, kello 11.56 UTC
Tuuli 9 kn pohjoisesta
Lämpötila 15°C
Kosteus 94%
Ilmanpaine 1007 hPa
Näkyvyys: 16.1 km
selkeää

METAR: KCWI 201156Z AUTO 35009KT 10SM CLR 15/14 A2974 RMK AO2 SLP093 70046 T01500139 10150 20128 51016

Aika: 07:12 (12:12 UTC)


TAF: puuttuu

Säähavainnot ja -ennusteet yli 4000 lentoasemalta (METAR- ja TAF-raportit).

Käytössä olevat sääasemat on merkitty karttaan keltaisilla ja punaisilla pisteillä.

Aseta hiiri pisteen päälle nähdäksesi sääaseman nimen.

Klikkaa sitten nähdäksesi säähavainnot ja -ennusteet.

Kartan vaihtaminen: klikkaa mustalla rastilla varustettuja vihreitä pisteitä, niin voit zoomata sisään; viivalla varustettua vihreää pistettä, niin voit zoomata ulos tai vihreitä nuolia, niin pääset viereisille kartoille.


METAR-TAF: